createdAt,value
2023-02-04T00:03:30.999Z,5.22
2023-02-04T00:06:06.770Z,5.73
2023-02-04T00:11:33.800Z,5.13
2023-02-04T00:14:12.820Z,5.68
2023-02-04T00:16:48.373Z,5.22
2023-02-04T00:19:39.864Z,4.97
2023-02-04T00:22:07.785Z,5.68
2023-02-04T00:24:37.900Z,5.55
2023-02-04T00:27:07.574Z,6.32
2023-02-04T00:29:44.418Z,7.47
2023-02-04T00:32:19.806Z,5.68
2023-02-04T00:34:55.222Z,5.93
2023-02-04T00:37:33.481Z,7.28
2023-02-04T00:40:10.692Z,5.93
2023-02-04T00:42:48.044Z,5.75
2023-02-04T00:45:17.949Z,5.63
2023-02-04T00:48:01.207Z,6.30
2023-02-04T00:50:45.074Z,5.60
2023-02-04T00:53:18.057Z,6.60
2023-02-04T00:56:05.502Z,6.53
2023-02-04T00:58:37.460Z,5.78
2023-02-04T01:01:32.165Z,5.07
2023-02-04T01:04:18.060Z,6.15
2023-02-04T01:06:57.514Z,6.32
2023-02-04T01:09:37.369Z,6.25
2023-02-04T01:12:23.131Z,5.70
2023-02-04T01:14:49.936Z,5.30
2023-02-04T01:17:24.134Z,6.55
2023-02-04T01:19:53.127Z,7.03
2023-02-04T01:22:27.335Z,6.60
2023-02-04T01:24:59.767Z,5.95
2023-02-04T01:30:09.843Z,5.82
2023-02-04T01:32:38.702Z,6.38
2023-02-04T01:35:10.005Z,5.45
2023-02-04T01:37:36.631Z,6.03
2023-02-04T01:40:06.375Z,6.10
2023-02-04T01:42:35.477Z,5.97
2023-02-04T01:45:07.308Z,6.40
2023-02-04T01:47:38.893Z,6.38
2023-02-04T01:50:16.559Z,5.47
2023-02-04T01:52:52.795Z,5.38
2023-02-04T01:55:32.565Z,6.05
2023-02-04T01:58:18.682Z,4.97
2023-02-04T02:00:45.767Z,4.70
2023-02-04T02:03:22.155Z,4.57
2023-02-04T02:05:57.139Z,3.97
2023-02-04T02:08:30.738Z,4.00
2023-02-04T02:11:20.011Z,3.90
2023-02-04T02:14:15.803Z,3.33
2023-02-04T02:16:51.381Z,3.13
2023-02-04T02:19:38.410Z,2.80
2023-02-04T02:22:25.970Z,3.25
2023-02-04T02:25:01.703Z,2.72
2023-02-04T02:27:37.281Z,3.22
2023-02-04T02:30:10.859Z,3.22
2023-02-04T02:32:44.185Z,2.85
2023-02-04T02:35:13.307Z,2.90
2023-02-04T02:37:41.416Z,2.63
2023-02-04T02:40:30.911Z,2.58
2023-02-04T02:43:01.930Z,2.45
2023-02-04T02:45:43.671Z,2.72
2023-02-04T02:48:22.036Z,3.27
2023-02-04T02:50:55.029Z,3.17
2023-02-04T02:53:37.694Z,3.42
2023-02-04T02:59:20.493Z,3.15
2023-02-04T03:02:01.825Z,3.58
2023-02-04T03:04:52.446Z,2.90
2023-02-04T03:07:53.385Z,3.40
2023-02-04T03:10:48.986Z,4.10
2023-02-04T03:13:34.192Z,3.15
2023-02-04T03:16:06.050Z,3.15
2023-02-04T03:18:40.132Z,3.20
2023-02-04T03:21:26.389Z,3.20
2023-02-04T03:24:19.792Z,3.42
2023-02-04T03:27:01.277Z,3.53
2023-02-04T03:30:20.073Z,3.47
2023-02-04T03:33:14.254Z,3.70
2023-02-04T03:35:55.881Z,3.00
2023-02-04T03:38:36.253Z,3.58
2023-02-04T03:42:24.730Z,2.85
2023-02-04T03:44:55.181Z,3.13
2023-02-04T03:50:34.875Z,2.75
2023-02-04T03:56:21.188Z,2.80
2023-02-04T03:58:58.909Z,2.83
2023-02-04T04:01:32.581Z,3.53
2023-02-04T04:07:28.301Z,2.50
2023-02-04T04:10:23.029Z,2.70
2023-02-04T04:12:57.689Z,3.00
2023-02-04T04:18:18.000Z,2.78
2023-02-04T04:21:05.282Z,2.50
2023-02-04T04:23:37.234Z,2.75
2023-02-04T04:26:11.578Z,1.48
2023-02-04T04:34:35.606Z,2.63
2023-02-04T04:37:59.440Z,2.55
2023-02-04T04:40:15.499Z,2.25
2023-02-04T04:43:12.935Z,2.47
2023-02-04T04:45:47.004Z,2.20
2023-02-04T04:52:08.605Z,3.10
2023-02-04T04:54:35.179Z,2.20
2023-02-04T04:57:01.567Z,2.55
2023-02-04T04:59:28.020Z,2.55
2023-02-04T05:01:54.464Z,3.00
2023-02-04T05:04:20.962Z,2.58
2023-02-04T05:06:47.556Z,3.08
2023-02-04T05:09:15.129Z,3.55
2023-02-04T05:11:41.598Z,2.72
2023-02-04T05:14:08.072Z,3.80
2023-02-04T05:16:34.574Z,3.55
2023-02-04T05:19:01.001Z,3.80
2023-02-04T05:21:27.435Z,3.17
2023-02-04T05:23:53.990Z,3.08
2023-02-04T05:26:29.927Z,3.03
2023-02-04T05:28:57.392Z,2.92
2023-02-04T05:31:23.960Z,3.38
2023-02-04T05:33:50.469Z,3.22
2023-02-04T05:36:17.824Z,2.60
2023-02-04T05:38:44.301Z,2.50
2023-02-04T05:41:10.728Z,3.03
2023-02-04T05:43:37.123Z,2.90
2023-02-04T05:46:03.643Z,2.55
2023-02-04T05:48:30.152Z,2.38
2023-02-04T05:50:56.573Z,2.60
2023-02-04T05:53:23.808Z,2.42
2023-02-04T05:55:51.220Z,2.85
2023-02-04T05:58:17.674Z,2.88
2023-02-04T06:00:44.057Z,2.33
2023-02-04T06:03:10.592Z,2.67
2023-02-04T06:05:37.075Z,3.03
2023-02-04T06:08:03.604Z,2.85
2023-02-04T06:10:30.913Z,2.65
2023-02-04T06:12:57.526Z,2.80
2023-02-04T06:15:24.106Z,3.03
2023-02-04T06:17:50.469Z,2.97
2023-02-04T06:20:17.299Z,2.83
2023-02-04T06:22:43.794Z,2.83
2023-02-04T06:25:10.385Z,3.17
2023-02-04T06:27:36.903Z,2.70
2023-02-04T06:30:03.946Z,2.80
2023-02-04T06:32:30.361Z,3.15
2023-02-04T06:34:56.867Z,3.42
2023-02-04T06:37:24.482Z,2.90
2023-02-04T06:39:54.665Z,2.80
2023-02-04T06:42:21.141Z,2.60
2023-02-04T06:44:47.626Z,2.13
2023-02-04T06:47:14.022Z,4.07
2023-02-04T06:49:40.445Z,2.70
2023-02-04T06:52:06.930Z,3.92
2023-02-04T06:54:33.342Z,3.88
2023-02-04T06:57:06.521Z,3.63
2023-02-04T06:59:37.384Z,3.17
2023-02-04T07:02:05.802Z,2.42
2023-02-04T07:04:32.311Z,2.30
2023-02-04T07:06:58.731Z,2.40
2023-02-04T07:09:25.301Z,2.55
2023-02-04T07:11:52.054Z,2.45
2023-02-04T07:14:18.894Z,2.60
2023-02-04T07:16:45.394Z,4.22
2023-02-04T07:19:12.333Z,3.80
2023-02-04T07:21:38.799Z,3.38
2023-02-04T07:24:05.403Z,3.22
2023-02-04T07:26:32.150Z,2.70
2023-02-04T07:28:58.589Z,2.75
2023-02-04T07:31:25.181Z,2.95
2023-02-04T07:33:51.733Z,2.97
2023-02-04T07:36:18.191Z,3.08
2023-02-04T07:38:44.622Z,4.35
2023-02-04T07:41:10.993Z,3.20
2023-02-04T07:43:37.584Z,3.00
2023-02-04T07:46:04.112Z,3.10
2023-02-04T07:48:30.812Z,2.70
2023-02-04T07:50:57.196Z,2.60
2023-02-04T07:53:23.689Z,2.42
2023-02-04T07:55:50.119Z,2.30
2023-02-04T07:58:16.561Z,2.75
2023-02-04T08:00:42.960Z,2.97
2023-02-04T08:03:09.471Z,3.58
2023-02-04T08:05:36.034Z,3.88
2023-02-04T08:08:02.902Z,3.33
2023-02-04T08:10:29.617Z,3.30
2023-02-04T08:12:56.311Z,3.22
2023-02-04T08:15:22.707Z,3.28
2023-02-04T08:17:49.150Z,3.03
2023-02-04T08:20:16.572Z,3.47
2023-02-04T08:22:43.149Z,3.17
2023-02-04T08:25:11.578Z,3.05
2023-02-04T08:27:38.699Z,3.50
2023-02-04T08:30:05.844Z,4.50
2023-02-04T08:32:32.352Z,5.20
2023-02-04T08:34:59.086Z,4.47
2023-02-04T08:37:25.629Z,4.65
2023-02-04T08:39:52.040Z,3.83
2023-02-04T08:42:18.920Z,4.28
2023-02-04T08:44:45.352Z,3.80
2023-02-04T08:47:11.878Z,4.50
2023-02-04T08:49:40.476Z,5.57
2023-02-04T08:52:07.973Z,4.50
2023-02-04T08:54:35.092Z,4.20
2023-02-04T08:57:02.008Z,4.18
2023-02-04T08:59:28.897Z,4.75
2023-02-04T09:01:55.356Z,3.97
2023-02-04T09:04:22.999Z,4.57
2023-02-04T09:06:49.984Z,4.03
2023-02-04T09:09:16.828Z,3.85
2023-02-04T09:11:43.780Z,4.95
2023-02-04T09:14:10.424Z,4.88
2023-02-04T09:16:36.924Z,3.50
2023-02-04T09:19:03.392Z,3.00
2023-02-04T09:21:29.941Z,3.15
2023-02-04T09:23:56.577Z,3.33
2023-02-04T09:26:23.071Z,2.88
2023-02-04T09:28:49.801Z,3.08
2023-02-04T09:31:17.054Z,2.35
2023-02-04T09:33:43.605Z,2.30
2023-02-04T09:36:10.137Z,2.28
2023-02-04T09:38:36.705Z,2.10
2023-02-04T09:41:07.171Z,2.38
2023-02-04T09:43:40.528Z,2.22
2023-02-04T09:46:12.486Z,2.40
2023-02-04T09:48:38.940Z,2.47
2023-02-04T09:51:07.644Z,1.75
2023-02-04T09:53:34.294Z,1.90
2023-02-04T09:56:00.788Z,2.00
2023-02-04T09:58:31.380Z,1.65
2023-02-04T10:01:27.218Z,2.15
2023-02-04T10:03:56.812Z,1.88
2023-02-04T10:06:23.996Z,1.80
2023-02-04T10:08:51.332Z,1.90
2023-02-04T10:11:19.835Z,2.17
2023-02-04T10:13:51.613Z,1.85
2023-02-04T10:16:29.609Z,2.13
2023-02-04T10:18:58.210Z,2.15
2023-02-04T10:21:32.081Z,2.10
2023-02-04T10:24:00.268Z,2.28
2023-02-04T10:26:29.421Z,2.40
2023-02-04T10:29:00.942Z,2.00
2023-02-04T10:31:45.304Z,2.35
2023-02-04T10:34:19.802Z,2.00
2023-02-04T10:36:51.898Z,2.15
2023-02-04T10:39:20.761Z,1.95
2023-02-04T10:41:49.936Z,1.90
2023-02-04T10:44:18.793Z,1.92
2023-02-04T10:46:45.293Z,1.95
2023-02-04T10:49:23.138Z,2.90
2023-02-04T10:51:51.446Z,3.28
2023-02-04T10:54:31.584Z,2.08
2023-02-04T10:57:22.584Z,2.47
2023-02-04T10:59:51.034Z,2.05
2023-02-04T11:02:43.385Z,2.00
2023-02-04T11:05:13.096Z,2.13
2023-02-04T11:07:39.538Z,2.47
2023-02-04T11:10:10.200Z,1.95
2023-02-04T11:12:47.874Z,1.70
2023-02-04T11:15:42.393Z,2.00
2023-02-04T11:18:11.976Z,1.80
2023-02-04T11:20:40.556Z,2.45
2023-02-04T11:23:25.785Z,2.10
2023-02-04T11:26:09.406Z,2.08
2023-02-04T11:28:59.066Z,1.60
2023-02-04T11:31:39.702Z,1.67
2023-02-04T11:34:15.323Z,1.52
2023-02-04T11:36:54.945Z,1.98
2023-02-04T11:39:21.591Z,1.77
2023-02-04T11:41:48.069Z,1.45
2023-02-04T11:44:15.737Z,1.63
2023-02-04T11:46:42.171Z,2.10
2023-02-04T11:49:20.766Z,1.55
2023-02-04T11:51:49.292Z,1.55
2023-02-04T11:54:19.106Z,1.50
2023-02-04T11:56:46.346Z,1.50
2023-02-04T11:59:13.841Z,1.50
2023-02-04T12:01:40.580Z,1.90
2023-02-04T12:04:19.686Z,1.50
2023-02-04T12:07:00.209Z,1.45
2023-02-04T12:09:29.947Z,2.10
2023-02-04T12:12:01.822Z,1.20
2023-02-04T12:14:33.494Z,1.30
2023-02-04T12:17:00.331Z,2.10
2023-02-04T12:19:27.756Z,2.20
2023-02-04T12:21:54.953Z,2.92
2023-02-04T12:24:21.401Z,2.08
2023-02-04T12:26:47.786Z,1.70
2023-02-04T12:29:14.352Z,1.35
2023-02-04T12:31:40.985Z,1.73
2023-02-04T12:34:07.598Z,1.50
2023-02-04T12:36:34.080Z,1.63
2023-02-04T12:39:00.567Z,1.77
2023-02-04T12:41:27.077Z,1.60
2023-02-04T12:43:55.541Z,1.60
2023-02-04T12:46:22.115Z,1.25
2023-02-04T12:48:48.938Z,1.50
2023-02-04T12:51:15.626Z,1.42
2023-02-04T12:53:42.140Z,1.30
2023-02-04T12:56:08.664Z,1.30
2023-02-04T12:58:35.137Z,1.50
2023-02-04T13:01:04.143Z,1.42
2023-02-04T13:03:31.012Z,1.38
2023-02-04T13:05:59.486Z,1.40
2023-02-04T13:08:26.040Z,1.40
2023-02-04T13:11:03.907Z,1.10
2023-02-04T13:13:30.529Z,1.60
2023-02-04T13:15:57.003Z,1.30
2023-02-04T13:18:23.572Z,1.73
2023-02-04T13:20:51.101Z,1.60
2023-02-04T13:23:17.707Z,1.50
2023-02-04T13:25:45.172Z,1.40
2023-02-04T13:28:11.615Z,1.60
2023-02-04T13:30:38.114Z,1.60
2023-02-04T13:33:04.675Z,1.75
2023-02-04T13:35:31.638Z,1.42
2023-02-04T13:37:58.286Z,1.50
2023-02-04T13:40:24.695Z,1.63
2023-02-04T13:42:51.220Z,1.63
2023-02-04T13:45:19.127Z,1.65
2023-02-04T13:47:48.032Z,1.30
2023-02-04T13:50:16.243Z,1.60
2023-02-04T13:52:42.724Z,1.90
2023-02-04T13:55:09.496Z,1.80
2023-02-04T13:57:37.364Z,1.40
2023-02-04T14:00:05.388Z,1.50
2023-02-04T14:02:31.962Z,1.60
2023-02-04T14:04:58.622Z,1.40
2023-02-04T14:07:25.168Z,1.27
2023-02-04T14:09:51.541Z,1.40
2023-02-04T14:12:18.029Z,1.48
2023-02-04T14:14:44.556Z,1.45
2023-02-04T14:17:10.996Z,2.75
2023-02-04T14:19:37.532Z,1.80
2023-02-04T14:22:03.984Z,1.85
2023-02-04T14:24:30.575Z,1.70
2023-02-04T14:26:57.162Z,1.40
2023-02-04T14:29:23.651Z,2.17
2023-02-04T14:31:50.117Z,2.00
2023-02-04T14:34:16.704Z,1.80
2023-02-04T14:36:43.114Z,1.77
2023-02-04T14:39:09.562Z,1.88
2023-02-04T14:41:36.028Z,2.17
2023-02-04T14:44:02.746Z,2.20
2023-02-04T14:46:29.327Z,1.70
2023-02-04T14:48:55.860Z,1.70
2023-02-04T14:51:22.413Z,1.45
2023-02-04T14:53:49.771Z,2.13
2023-02-04T14:56:16.750Z,2.03
2023-02-04T14:58:43.231Z,1.95
2023-02-04T15:01:09.788Z,2.10
2023-02-04T15:03:36.453Z,1.35
2023-02-04T15:06:03.087Z,1.80
2023-02-04T15:08:29.810Z,1.98
2023-02-04T15:10:56.479Z,1.90
2023-02-04T15:13:23.141Z,2.00
2023-02-04T15:15:49.569Z,1.90
2023-02-04T15:18:16.129Z,1.85
2023-02-04T15:20:42.587Z,2.00
2023-02-04T15:23:12.934Z,2.00
2023-02-04T15:25:39.950Z,4.22
2023-02-04T15:28:06.817Z,3.70
2023-02-04T15:30:33.593Z,6.65
2023-02-04T15:33:00.244Z,4.65
2023-02-04T15:35:26.644Z,3.05
2023-02-04T15:37:53.140Z,2.50
2023-02-04T15:40:19.749Z,2.85
2023-02-04T15:42:46.156Z,2.33
2023-02-04T15:45:12.521Z,2.88
2023-02-04T15:47:38.967Z,2.85
2023-02-04T15:50:08.603Z,2.65
2023-02-04T15:52:35.019Z,3.83
2023-02-04T15:55:01.442Z,3.00
2023-02-04T15:57:27.868Z,3.00
2023-02-04T15:59:54.291Z,2.53
2023-02-04T16:02:20.724Z,2.85
2023-02-04T16:04:47.901Z,3.55
2023-02-04T16:07:14.340Z,3.60
2023-02-04T16:09:41.027Z,4.18
2023-02-04T16:12:07.593Z,4.30
2023-02-04T16:14:34.009Z,3.92
2023-02-04T16:17:01.727Z,3.80
2023-02-04T16:19:28.536Z,3.88
2023-02-04T16:21:54.944Z,3.58
2023-02-04T16:24:21.381Z,3.50
2023-02-04T16:26:47.947Z,3.30
2023-02-04T16:29:14.424Z,3.60
2023-02-04T16:31:40.851Z,4.53
2023-02-04T16:34:07.298Z,4.45
2023-02-04T16:36:33.717Z,5.30
2023-02-04T16:39:00.299Z,4.13
2023-02-04T16:41:26.679Z,5.57
2023-02-04T16:43:53.087Z,6.75
2023-02-04T16:46:19.528Z,6.95
2023-02-04T16:48:45.990Z,6.38
2023-02-04T16:51:12.419Z,5.38
2023-02-04T16:53:39.496Z,5.28
2023-02-04T16:56:06.317Z,6.72
2023-02-04T16:58:32.811Z,8.45
2023-02-04T17:00:59.806Z,9.77
2023-02-04T17:03:27.107Z,7.60
2023-02-04T17:05:53.635Z,7.03
2023-02-04T17:08:20.160Z,7.07
2023-02-04T17:11:05.218Z,7.00
2023-02-04T17:13:31.620Z,10.50
2023-02-04T17:16:01.091Z,10.75
2023-02-04T17:18:28.950Z,14.57
2023-02-04T17:20:55.342Z,13.90
2023-02-04T17:23:21.988Z,11.65
2023-02-04T17:25:48.370Z,12.48
2023-02-04T17:28:14.804Z,10.70
2023-02-04T17:30:41.221Z,8.25
2023-02-04T17:33:07.694Z,7.13
2023-02-04T17:35:34.269Z,7.00
2023-02-04T17:38:01.216Z,5.10
2023-02-04T17:40:28.160Z,4.82
2023-02-04T17:42:56.161Z,3.92
2023-02-04T17:45:22.514Z,3.95
2023-02-04T17:47:48.889Z,3.95
2023-02-04T17:50:15.470Z,4.50
2023-02-04T17:52:41.930Z,4.50
2023-02-04T17:55:22.182Z,4.68
2023-02-04T17:57:49.208Z,4.50
2023-02-04T18:00:18.051Z,4.25
2023-02-04T18:02:50.483Z,4.05
2023-02-04T18:05:25.419Z,4.18
2023-02-04T18:08:00.870Z,3.53
2023-02-04T18:10:36.111Z,3.00
2023-02-04T18:13:17.852Z,3.47
2023-02-04T18:15:53.021Z,4.10
2023-02-04T18:18:25.266Z,4.13
2023-02-04T18:20:59.323Z,4.28
2023-02-04T18:23:28.447Z,4.80
2023-02-04T18:25:55.251Z,4.93
2023-02-04T18:28:21.973Z,5.13
2023-02-04T18:30:51.526Z,6.47
2023-02-04T18:33:25.979Z,6.38
2023-02-04T18:35:58.415Z,4.70
2023-02-04T18:38:32.148Z,4.50
2023-02-04T18:41:02.753Z,4.38
2023-02-04T18:43:33.932Z,3.72
2023-02-04T18:46:01.470Z,3.22
2023-02-04T18:48:28.162Z,3.50
2023-02-04T18:50:54.620Z,3.90
2023-02-04T18:53:28.390Z,3.50
2023-02-04T18:55:59.594Z,3.78
2023-02-04T18:58:37.673Z,3.20
2023-02-04T19:01:10.163Z,3.80
2023-02-04T19:06:29.657Z,3.97
2023-02-04T19:09:17.800Z,4.10
2023-02-04T19:11:47.084Z,3.92
2023-02-04T19:14:25.845Z,4.40
2023-02-04T19:16:54.574Z,4.55
2023-02-04T19:19:40.995Z,4.05
2023-02-04T19:22:37.048Z,4.32
2023-02-04T19:25:29.051Z,5.10
2023-02-04T19:27:58.331Z,5.10
2023-02-04T19:30:27.815Z,5.25
2023-02-04T19:32:59.341Z,9.30
2023-02-04T19:35:35.616Z,59.70
2023-02-04T19:38:34.873Z,44.85
2023-02-04T19:41:01.330Z,18.10
2023-02-04T19:43:35.503Z,8.43
2023-02-04T19:46:02.419Z,7.60
2023-02-04T19:48:38.770Z,8.77
2023-02-04T19:51:24.525Z,7.32
2023-02-04T19:53:52.191Z,7.85
2023-02-04T19:56:32.604Z,7.18
2023-02-04T19:59:18.416Z,7.40
2023-02-04T20:01:44.806Z,6.88
2023-02-04T20:04:17.858Z,6.30
2023-02-04T20:06:44.691Z,6.53
2023-02-04T20:09:19.625Z,6.45
2023-02-04T20:11:57.763Z,6.22
2023-02-04T20:14:36.513Z,6.38
2023-02-04T20:17:11.620Z,6.00
2023-02-04T20:19:38.939Z,5.82
2023-02-04T20:22:11.477Z,6.25
2023-02-04T20:27:21.494Z,6.93
2023-02-04T20:29:49.254Z,6.65
2023-02-04T20:32:27.473Z,6.50
2023-02-04T20:35:09.007Z,7.50
2023-02-04T20:37:35.880Z,8.75
2023-02-04T20:40:15.891Z,7.70
2023-02-04T20:42:46.663Z,6.90
2023-02-04T20:45:24.106Z,8.50
2023-02-04T20:47:53.175Z,8.85
2023-02-04T20:50:38.160Z,9.02
2023-02-04T20:53:16.958Z,9.60
2023-02-04T20:55:50.896Z,9.82
2023-02-04T20:58:20.445Z,9.35
2023-02-04T21:00:51.977Z,7.72
2023-02-04T21:03:21.289Z,7.90
2023-02-04T21:05:50.085Z,9.10
2023-02-04T21:08:35.463Z,9.38
2023-02-04T21:11:03.550Z,9.20
2023-02-04T21:13:30.079Z,8.45
2023-02-04T21:15:59.414Z,7.78
2023-02-04T21:18:25.910Z,7.47
2023-02-04T21:20:52.387Z,7.60
2023-02-04T21:23:21.328Z,7.57
2023-02-04T21:25:47.750Z,7.10
2023-02-04T21:28:14.564Z,7.85
2023-02-04T21:30:41.004Z,7.90
2023-02-04T21:33:11.481Z,7.10
2023-02-04T21:35:38.831Z,7.38
2023-02-04T21:38:05.357Z,7.18
2023-02-04T21:40:33.071Z,7.43
2023-02-04T21:42:59.458Z,7.95
2023-02-04T21:45:25.945Z,7.80
2023-02-04T21:47:52.659Z,6.90
2023-02-04T21:50:21.168Z,8.20
2023-02-04T21:52:47.627Z,8.05
2023-02-04T21:55:15.752Z,8.95
2023-02-04T21:57:42.130Z,8.20
2023-02-04T22:00:12.503Z,8.68
2023-02-04T22:02:38.913Z,8.32
2023-02-04T22:05:07.633Z,9.38
2023-02-04T22:07:35.038Z,9.32
2023-02-04T22:10:02.111Z,9.23
2023-02-04T22:12:28.591Z,8.35
2023-02-04T22:14:55.003Z,8.63
2023-02-04T22:17:21.374Z,8.63
2023-02-04T22:19:47.805Z,8.43
2023-02-04T22:22:14.242Z,8.05
2023-02-04T22:24:40.663Z,8.73
2023-02-04T22:27:07.047Z,7.30
2023-02-04T22:29:33.551Z,6.10
2023-02-04T22:32:00.169Z,4.50
2023-02-04T22:34:27.525Z,3.72
2023-02-04T22:36:55.416Z,3.78
2023-02-04T22:39:21.828Z,3.72
2023-02-04T22:41:48.321Z,3.63
2023-02-04T22:44:14.736Z,3.50
2023-02-04T22:46:41.324Z,3.58
2023-02-04T22:49:07.863Z,3.13
2023-02-04T22:51:34.318Z,3.42
2023-02-04T22:54:03.842Z,3.00
2023-02-04T22:56:30.260Z,3.15
2023-02-04T22:58:56.743Z,3.25
2023-02-04T23:01:23.130Z,3.25
2023-02-04T23:03:49.651Z,3.20
2023-02-04T23:06:16.289Z,3.40
2023-02-04T23:08:42.716Z,3.22
2023-02-04T23:11:09.422Z,3.15
2023-02-04T23:13:36.353Z,3.60
2023-02-04T23:16:02.832Z,4.88
2023-02-04T23:18:29.250Z,9.95
2023-02-04T23:20:55.685Z,10.68
2023-02-04T23:23:22.089Z,11.43
2023-02-04T23:25:48.870Z,11.38
2023-02-04T23:28:16.035Z,10.50
2023-02-04T23:30:42.797Z,10.88
2023-02-04T23:33:09.264Z,10.98
2023-02-04T23:35:35.898Z,11.10
2023-02-04T23:38:02.629Z,10.20
2023-02-04T23:40:29.077Z,10.05
2023-02-04T23:42:55.499Z,10.57
2023-02-04T23:45:21.887Z,10.35
2023-02-04T23:47:48.263Z,9.85
2023-02-04T23:50:14.888Z,10.60
2023-02-04T23:52:41.433Z,10.43
2023-02-04T23:55:07.939Z,10.45
2023-02-04T23:57:34.367Z,9.80
